Skip to main content

Pegões

ID 1210767 · 38.6508, -8.6350 map

Latest reading · 2026-05-09 19:00 (Europe/Lisbon)

Temperature
17.3 °C
Humidity
90 %
Pressure
Precipitation
0.0 mm
Radiation
853 W/m²
Wind speed
14.4 km/h
Wind direction
SW · South-west

24-hour history

Time (Europe/Lisbon) Temp Humidity Pressure Rain Wind Dir
2026-05-09 19:00 17.3 °C 90 % 0.0 mm 14.4 km/h SW
2026-05-09 18:00 16.6 °C 99 % 0.1 mm 24.1 km/h SW
2026-05-09 17:00 17.6 °C 91 % 0.1 mm 18.7 km/h SW
2026-05-09 16:00 18.5 °C 84 % 0.0 mm 22.0 km/h SW
2026-05-09 15:00 19.5 °C 75 % 0.0 mm 21.6 km/h SW
2026-05-09 14:00 19.0 °C 77 % 0.0 mm 22.3 km/h SW
2026-05-09 13:00 18.7 °C 81 % 0.0 mm 21.2 km/h SW
2026-05-09 12:00 17.7 °C 90 % 0.0 mm 23.4 km/h SW
2026-05-09 11:00 16.8 °C 98 % 0.3 mm 16.6 km/h SW
2026-05-09 10:00 15.2 °C 100 % 0.8 mm 12.2 km/h S
2026-05-09 09:00 13.1 °C 100 % 1.4 mm 8.3 km/h SE
2026-05-09 08:00 12.3 °C 100 % 1.9 mm 4.7 km/h SE
2026-05-09 07:00 12.7 °C 100 % 0.4 mm 6.8 km/h SE
2026-05-09 06:00 13.0 °C 100 % 0.8 mm 8.6 km/h SE
2026-05-09 05:00 12.5 °C 100 % 0.1 mm 7.2 km/h SE
2026-05-09 04:00 12.5 °C 100 % 0.7 mm 4.7 km/h S
2026-05-09 03:00 12.3 °C 100 % 0.1 mm 7.9 km/h SE
2026-05-09 02:00 12.2 °C 100 % 0.0 mm 8.3 km/h SE
2026-05-09 01:00 12.5 °C 100 % 0.0 mm 6.8 km/h SE
2026-05-09 00:00 12.9 °C 100 % 0.0 mm 9.4 km/h SE
2026-05-08 23:00 13.4 °C 100 % 0.0 mm 10.4 km/h S
2026-05-08 22:00 13.2 °C 100 % 1.3 mm 11.2 km/h E
2026-05-08 21:00 13.8 °C 100 % 0.7 mm 7.2 km/h SE
2026-05-08 20:00 14.6 °C 100 % 0.3 mm 7.2 km/h SE